Friday, July 20, 2018, 12:34 PM EDT
Back to Local

KHLG, Wheeling Ohio County Airport

Location: Wheeling, WV, United States Lat: 40.167
Local Time: 12:34 PM EDT (16:34 GMT) Lon: -80.65
Time Zone: US/Eastern Elev: 1194 ft

Show me the last for .
Show Decoded

2018-07-20 12:20 METAR KHLG 201620Z 21012G19KT 10SM VCTS BKN046 BKN090 26/16 A3001 RMK AO2
                 T02560161 =
2018-07-20 11:53 METAR KHLG 201553Z 18012G18KT 10SM FEW044 SCT070 28/17 A3000 RMK AO2 SLP151
                 T02830167 =
2018-07-20 10:53 METAR KHLG 201453Z 19009G18KT 140V210 10SM FEW080 27/16 A3000 RMK AO2 SLP152
                 T02720161 58007 =
2018-07-20 09:53 METAR KHLG 201353Z 16012KT 10SM FEW080 26/15 A3001 RMK AO2 SLP156 T02560150 =
2018-07-20 08:53 METAR KHLG 201253Z 16008KT 10SM FEW080 23/15 A3002 RMK AO2 SLP159 T02330150 =
2018-07-20 07:53 METAR KHLG 201153Z 15008KT 10SM SCT080 22/14 A3002 RMK AO2 SLP160 T02170144
                 10217 20194 53002 =
2018-07-20 06:53 METAR KHLG 201053Z 14005KT 10SM CLR 19/14 A3002 RMK AO2 SLP157 T01940139 =
2018-07-20 05:53 METAR KHLG 200953Z AUTO 14007KT 10SM BKN075 19/14 A3001 RMK AO2 SLP155 T01940139
                 =
2018-07-20 04:53 METAR KHLG 200853Z AUTO 14006KT 10SM BKN070 21/14 A3002 RMK AO2 SLP156 T02060139
                 55001 =
2018-07-20 03:53 METAR KHLG 200753Z AUTO 14008KT 10SM CLR 20/14 A3001 RMK AO2 SLP157 T02000144 =
2018-07-20 02:53 METAR KHLG 200653Z AUTO 14007KT 10SM FEW070 21/14 A3001 RMK AO2 SLP156 T02060144
                 =
2018-07-20 01:53 METAR KHLG 200553Z AUTO 15008KT 10SM SCT065 21/14 A3002 RMK AO2 SLP159 T02110144
                 10256 20200 58003 =
2018-07-20 00:53 METAR KHLG 200453Z AUTO 14008KT 10SM SCT065 21/15 A3003 RMK AO2 SLP162 T02060150
                 402890139 =
2018-07-19 23:53 METAR KHLG 200353Z AUTO 11007KT 10SM CLR 21/14 A3003 RMK AO2 SLP164 T02110139 =
2018-07-19 22:53 METAR KHLG 200253Z AUTO 09005KT 10SM CLR 22/13 A3003 RMK AO2 SLP163 T02220133
                 53004 =
2018-07-19 21:53 METAR KHLG 200153Z 10006KT 10SM CLR 23/14 A3003 RMK AO2 SLP162 T02330139 =
2018-07-19 20:53 METAR KHLG 200053Z 10004KT 10SM CLR 24/14 A3002 RMK AO2 SLP160 T02390144 =
2018-07-19 19:53 METAR KHLG 192353Z 11004KT 10SM CLR 26/14 A3002 RMK AO2 SLP160 T02560144 10289
                 20256 58010 =
2018-07-19 18:53 METAR KHLG 192253Z 14007KT 10SM CLR 28/13 A3003 RMK AO2 SLP163 T02780128 =
2018-07-19 17:53 METAR KHLG 192153Z 14008KT 10SM CLR 28/13 A3004 RMK AO2 SLP167 T02830128 =
2018-07-19 16:53 METAR KHLG 192053Z 14010KT 10SM CLR 29/13 A3005 RMK AO2 SLP170 T02890133 56013 =
2018-07-19 15:53 METAR KHLG 191953Z 00000KT 10SM CLR 28/13 A3006 RMK AO2 SLP173 T02780133 =
2018-07-19 14:53 METAR KHLG 191853Z 14005KT 10SM CLR 28/13 A3007 RMK AO2 SLP177 T02780128 =
2018-07-19 13:53 METAR KHLG 191753Z VRB05KT 10SM CLR 27/12 A3009 RMK AO2 SLP184 T02670122 10272
                 20167 58010 =
2018-07-19 12:53 METAR KHLG 191653Z VRB04KT 10SM CLR 27/12 A3010 RMK AO2 SLP189 T02670122 =

Support USWX by starting your Amazon purchase here.